Time;durP1;ratioP1;P1;durP2;ratioP2;P2;SDS_P1;SDS_P2;PMS_P1;PMS_P2;Temp;Humidity;BMP_temperature;BMP_pressure;BME280_temperature;BME280_humidity;BME280_pressure;Samples;Min_cycle;Max_cycle;Signal;HPM_P1;HPM_P2
2023/07/20 00:02:02;;;;;;;4.45;3.65;;;;;;;;;;5095107;28;20082;-64
2023/07/20 00:04:29;;;;;;;3.75;3.00;;;;;;;;;;5103673;27;20539;-64
2023/07/20 00:06:55;;;;;;;2.90;2.70;;;;;;;;;;5091041;27;20064;-61
2023/07/20 00:09:22;;;;;;;2.58;2.03;;;;;;;;;;5102518;27;20066;-64
2023/07/20 00:11:50;;;;;;;2.10;1.70;;;;;;;;;;5104721;28;20079;-63
2023/07/20 00:14:18;;;;;;;2.75;2.03;;;;;;;;;;5104130;28;20048;-64
2023/07/20 00:16:48;;;;;;;3.28;2.15;;;;;;;;;;5103893;28;20429;-60
2023/07/20 00:19:16;;;;;;;2.45;1.55;;;;;;;;;;5096246;27;20083;-65
2023/07/20 00:21:42;;;;;;;1.55;1.45;;;;;;;;;;5109276;27;20510;-64
2023/07/20 00:24:09;;;;;;;3.55;1.90;;;;;;;;;;5103395;27;20521;-62
2023/07/20 00:26:35;;;;;;;1.85;1.23;;;;;;;;;;5104756;27;20094;-62
2023/07/20 00:29:02;;;;;;;2.25;1.85;;;;;;;;;;5125447;27;20052;-65
2023/07/20 00:31:29;;;;;;;4.35;1.98;;;;;;;;;;5107085;27;20892;-65
2023/07/20 00:33:55;;;;;;;2.13;1.92;;;;;;;;;;5102894;27;20083;-64
2023/07/20 00:36:22;;;;;;;1.52;1.38;;;;;;;;;;5104385;28;20051;-63
2023/07/20 00:38:49;;;;;;;2.83;1.67;;;;;;;;;;5105556;27;20138;-64
2023/07/20 00:41:15;;;;;;;1.48;1.33;;;;;;;;;;5104909;28;20579;-64
2023/07/20 00:43:42;;;;;;;2.03;1.85;;;;;;;;;;5105072;27;20581;-63
2023/07/20 00:46:09;;;;;;;2.85;1.40;;;;;;;;;;5103586;28;20178;-62
2023/07/20 00:48:36;;;;;;;2.05;1.75;;;;;;;;;;5113775;27;20085;-65
2023/07/20 00:51:03;;;;;;;2.13;1.75;;;;;;;;;;5104434;27;20052;-65
2023/07/20 00:53:30;;;;;;;1.92;1.83;;;;;;;;;;5099003;27;20098;-65
2023/07/20 00:55:56;;;;;;;2.90;1.50;;;;;;;;;;5093373;28;20055;-65
2023/07/20 00:58:23;;;;;;;2.00;1.30;;;;;;;;;;5103984;28;20522;-64
2023/07/20 01:00:49;;;;;;;1.83;1.60;;;;;;;;;;5081899;28;20048;-65
2023/07/20 01:03:16;;;;;;;1.60;1.50;;;;;;;;;;5090362;27;20049;-65
2023/07/20 01:05:48;;;;;;;3.17;1.55;;;;;;;;;;5095108;27;20068;-64
2023/07/20 01:08:24;;;;;;;1.63;1.52;;;;;;;;;;5106393;27;20063;-64
2023/07/20 01:10:54;;;;;;;1.50;1.40;;;;;;;;;;5104041;28;20125;-64
2023/07/20 01:13:21;;;;;;;3.25;1.50;;;;;;;;;;5089913;27;20149;-65
2023/07/20 01:16:00;;;;;;;3.10;2.00;;;;;;;;;;5103686;28;20139;-65
2023/07/20 01:18:26;;;;;;;2.45;1.65;;;;;;;;;;5103985;28;20059;-64
2023/07/20 01:20:56;;;;;;;4.13;1.77;;;;;;;;;;5103155;27;20950;-65
2023/07/20 01:23:45;;;;;;;1.65;1.55;;;;;;;;;;5115710;27;20056;-65
2023/07/20 01:26:31;;;;;;;1.63;1.50;;;;;;;;;;5080242;28;20078;-63
2023/07/20 01:29:02;;;;;;;1.70;1.60;;;;;;;;;;5103160;27;20052;-63
2023/07/20 01:31:30;;;;;;;1.52;1.42;;;;;;;;;;5103150;28;20440;-63
2023/07/20 01:33:58;;;;;;;1.77;1.67;;;;;;;;;;5118525;27;20078;-66
2023/07/20 01:36:26;;;;;;;1.77;1.65;;;;;;;;;;5102942;27;20159;-64
2023/07/20 01:38:53;;;;;;;1.98;1.80;;;;;;;;;;5104097;28;20649;-66
2023/07/20 01:41:20;;;;;;;3.13;1.70;;;;;;;;;;5118183;27;20526;-66
2023/07/20 01:43:46;;;;;;;2.00;1.70;;;;;;;;;;5094700;27;20063;-65
2023/07/20 01:46:13;;;;;;;1.77;1.67;;;;;;;;;;5117453;27;20462;-64
2023/07/20 01:48:39;;;;;;;3.58;2.00;;;;;;;;;;5088410;27;20084;-65
2023/07/20 01:51:06;;;;;;;1.70;1.60;;;;;;;;;;5103420;28;20052;-65
2023/07/20 01:53:32;;;;;;;2.58;2.08;;;;;;;;;;5081835;27;20082;-65
2023/07/20 01:55:58;;;;;;;2.13;1.90;;;;;;;;;;5103785;27;20052;-62
2023/07/20 01:58:25;;;;;;;2.28;2.08;;;;;;;;;;5102982;28;20530;-66
2023/07/20 02:00:51;;;;;;;2.28;2.08;;;;;;;;;;5103982;28;20086;-64
2023/07/20 02:03:18;;;;;;;2.55;2.20;;;;;;;;;;5102084;27;20056;-63
2023/07/20 02:05:44;;;;;;;4.00;2.10;;;;;;;;;;5091890;27;20064;-65
2023/07/20 02:08:11;;;;;;;2.40;2.20;;;;;;;;;;5102006;28;20056;-65
2023/07/20 02:10:37;;;;;;;2.08;1.95;;;;;;;;;;5112750;27;20052;-63
2023/07/20 02:13:04;;;;;;;2.42;2.22;;;;;;;;;;5089944;27;20059;-65
2023/07/20 02:15:30;;;;;;;3.65;2.35;;;;;;;;;;5093976;27;20102;-65
2023/07/20 02:17:57;;;;;;;2.53;2.20;;;;;;;;;;5101727;28;20576;-62
2023/07/20 02:20:23;;;;;;;2.30;2.10;;;;;;;;;;5105832;27;20059;-63
2023/07/20 02:22:50;;;;;;;3.47;2.13;;;;;;;;;;5099850;27;20443;-65
2023/07/20 02:25:16;;;;;;;2.28;1.92;;;;;;;;;;5106996;27;20086;-62
2023/07/20 02:27:42;;;;;;;3.25;2.13;;;;;;;;;;5105663;27;20127;-62
2023/07/20 02:30:09;;;;;;;3.35;1.83;;;;;;;;;;5096291;28;20052;-64
2023/07/20 02:32:36;;;;;;;3.70;2.10;;;;;;;;;;5097560;27;20092;-65
2023/07/20 02:35:03;;;;;;;3.83;1.90;;;;;;;;;;5104257;27;20562;-63
2023/07/20 02:37:30;;;;;;;2.70;1.90;;;;;;;;;;5105527;27;20598;-61
2023/07/20 02:39:56;;;;;;;3.20;1.90;;;;;;;;;;5101469;28;20044;-65
2023/07/20 02:42:25;;;;;;;2.53;1.73;;;;;;;;;;5104402;27;20051;-65
2023/07/20 02:44:52;;;;;;;2.75;2.33;;;;;;;;;;5095846;27;20053;-63
2023/07/20 02:47:18;;;;;;;2.58;2.08;;;;;;;;;;5099153;28;20052;-66
2023/07/20 02:49:45;;;;;;;2.08;1.88;;;;;;;;;;5087317;28;21173;-65
2023/07/20 02:52:12;;;;;;;2.75;1.95;;;;;;;;;;5086413;28;20048;-64
2023/07/20 02:54:38;;;;;;;3.45;1.90;;;;;;;;;;5098407;27;20088;-63
2023/07/20 02:57:05;;;;;;;1.67;1.58;;;;;;;;;;5100146;27;20055;-65
2023/07/20 02:59:31;;;;;;;2.65;1.90;;;;;;;;;;5100783;28;20047;-66
2023/07/20 03:01:58;;;;;;;2.38;1.92;;;;;;;;;;5097170;28;20561;-64
2023/07/20 03:04:27;;;;;;;2.53;1.95;;;;;;;;;;5092765;27;20472;-64
2023/07/20 03:06:54;;;;;;;2.42;1.95;;;;;;;;;;5096666;28;20118;-66
2023/07/20 03:09:21;;;;;;;2.53;1.70;;;;;;;;;;5102327;28;20179;-65
2023/07/20 03:11:47;;;;;;;2.40;1.80;;;;;;;;;;5098782;27;20059;-62
2023/07/20 03:14:14;;;;;;;1.95;1.85;;;;;;;;;;5090230;27;20044;-66
2023/07/20 03:16:40;;;;;;;2.75;2.22;;;;;;;;;;5095700;27;20140;-65
2023/07/20 03:19:07;;;;;;;4.40;2.00;;;;;;;;;;5101725;28;20048;-63
2023/07/20 03:21:33;;;;;;;3.53;2.20;;;;;;;;;;5106500;27;20063;-60
2023/07/20 03:23:59;;;;;;;2.25;1.85;;;;;;;;;;5101633;27;20108;-64
2023/07/20 03:26:26;;;;;;;2.88;1.90;;;;;;;;;;5096839;27;20079;-64
2023/07/20 03:28:52;;;;;;;2.13;1.58;;;;;;;;;;5095216;28;20146;-62
2023/07/20 03:31:19;;;;;;;1.70;1.60;;;;;;;;;;5084965;27;20541;-66
2023/07/20 03:33:45;;;;;;;3.08;1.73;;;;;;;;;;5094050;27;20060;-65
2023/07/20 03:36:12;;;;;;;2.25;1.80;;;;;;;;;;5100486;28;20131;-63
2023/07/20 03:38:39;;;;;;;2.40;1.85;;;;;;;;;;5098301;27;20160;-64
2023/07/20 03:41:05;;;;;;;2.58;2.10;;;;;;;;;;5110030;27;20575;-65
2023/07/20 03:43:31;;;;;;;1.90;1.73;;;;;;;;;;5101437;27;20084;-63
2023/07/20 03:45:58;;;;;;;3.00;1.65;;;;;;;;;;5101296;28;20051;-63
2023/07/20 03:48:25;;;;;;;2.85;2.00;;;;;;;;;;5101264;28;20459;-65
2023/07/20 03:50:52;;;;;;;2.28;1.92;;;;;;;;;;5100108;27;20136;-66
2023/07/20 03:53:19;;;;;;;2.22;2.03;;;;;;;;;;5097861;27;20048;-62
2023/07/20 03:55:49;;;;;;;2.97;2.40;;;;;;;;;;5104576;27;20060;-61
2023/07/20 03:58:16;;;;;;;3.70;2.03;;;;;;;;;;5102760;27;20048;-64
2023/07/20 04:00:50;;;;;;;2.08;1.92;;;;;;;;;;5107933;27;20063;-66
2023/07/20 04:03:17;;;;;;;3.20;2.05;;;;;;;;;;5096910;27;20147;-62
2023/07/20 04:05:44;;;;;;;3.13;2.20;;;;;;;;;;5100556;27;20048;-62
2023/07/20 04:08:13;;;;;;;3.22;2.00;;;;;;;;;;5120461;27;20066;-62
2023/07/20 04:10:43;;;;;;;5.32;2.42;;;;;;;;;;5104022;27;20052;-64
2023/07/20 04:13:09;;;;;;;4.45;2.30;;;;;;;;;;5093305;27;20054;-63
2023/07/20 04:15:36;;;;;;;3.10;2.38;;;;;;;;;;5104293;28;20534;-66
2023/07/20 04:18:02;;;;;;;3.30;2.30;;;;;;;;;;5104398;27;20117;-66
2023/07/20 04:20:29;;;;;;;2.90;2.38;;;;;;;;;;5101988;27;20443;-62
2023/07/20 04:22:55;;;;;;;2.85;2.50;;;;;;;;;;5100457;27;20052;-60
2023/07/20 04:25:22;;;;;;;2.97;2.40;;;;;;;;;;5093446;27;20461;-66
2023/07/20 04:27:48;;;;;;;2.65;2.42;;;;;;;;;;5103347;28;20426;-66
2023/07/20 04:30:19;;;;;;;6.90;2.95;;;;;;;;;;5104787;28;20559;-65
2023/07/20 04:32:46;;;;;;;5.45;2.60;;;;;;;;;;5103622;27;20052;-64
2023/07/20 04:35:17;;;;;;;2.90;2.45;;;;;;;;;;5100557;27;20521;-62
2023/07/20 04:37:45;;;;;;;5.57;2.53;;;;;;;;;;5102028;28;20064;-64
2023/07/20 04:40:12;;;;;;;3.28;2.97;;;;;;;;;;5105076;27;20188;-62
2023/07/20 04:42:39;;;;;;;4.03;2.80;;;;;;;;;;5102913;27;20056;-65
2023/07/20 04:45:06;;;;;;;6.07;3.00;;;;;;;;;;5099077;27;20049;-64
2023/07/20 04:47:32;;;;;;;4.30;3.00;;;;;;;;;;5104184;27;20054;-63
2023/07/20 04:49:58;;;;;;;2.88;2.50;;;;;;;;;;5115450;27;20178;-64
2023/07/20 04:52:25;;;;;;;4.35;2.40;;;;;;;;;;5104382;27;20133;-61
2023/07/20 04:55:08;;;;;;;4.18;3.00;;;;;;;;;;5101846;28;20095;-64
2023/07/20 04:57:35;;;;;;;4.50;2.60;;;;;;;;;;5104145;27;20052;-65
2023/07/20 05:00:03;;;;;;;3.60;3.03;;;;;;;;;;5120115;27;20075;-62
2023/07/20 05:02:29;;;;;;;2.90;2.65;;;;;;;;;;5083775;27;20072;-63
2023/07/20 05:04:56;;;;;;;7.18;3.30;;;;;;;;;;5097488;28;20052;-63
2023/07/20 05:07:22;;;;;;;5.18;4.03;;;;;;;;;;5101796;28;20587;-65
2023/07/20 05:09:48;;;;;;;4.15;2.80;;;;;;;;;;5093628;27;20110;-63
2023/07/20 05:12:15;;;;;;;4.70;2.65;;;;;;;;;;5097432;28;20097;-58
2023/07/20 05:14:45;;;;;;;3.97;2.60;;;;;;;;;;5090407;27;20753;-64
2023/07/20 05:17:11;;;;;;;7.07;3.10;;;;;;;;;;5098198;27;20103;-65
2023/07/20 05:19:38;;;;;;;3.20;2.60;;;;;;;;;;5094502;28;20048;-62
2023/07/20 05:22:06;;;;;;;3.05;2.70;;;;;;;;;;5097867;28;20052;-66
2023/07/20 05:24:33;;;;;;;4.38;3.00;;;;;;;;;;5103335;27;20510;-63
2023/07/20 05:26:59;;;;;;;5.95;3.03;;;;;;;;;;5088818;27;21022;-62
2023/07/20 05:29:26;;;;;;;6.70;2.50;;;;;;;;;;5094633;28;20059;-64
2023/07/20 05:31:52;;;;;;;3.85;2.85;;;;;;;;;;5097395;28;20110;-64
2023/07/20 05:34:18;;;;;;;4.93;2.90;;;;;;;;;;5091527;28;20064;-62
2023/07/20 05:36:45;;;;;;;3.25;2.58;;;;;;;;;;5099160;27;20048;-66
2023/07/20 05:39:11;;;;;;;3.25;2.63;;;;;;;;;;5098605;28;20048;-65
2023/07/20 05:41:38;;;;;;;3.13;2.78;;;;;;;;;;5090224;27;20052;-64
2023/07/20 05:44:04;;;;;;;3.38;3.08;;;;;;;;;;5085127;27;20048;-66
2023/07/20 05:46:30;;;;;;;3.40;2.40;;;;;;;;;;5083599;27;20094;-63
2023/07/20 05:49:16;;;;;;;5.82;2.40;;;;;;;;;;5095301;27;20194;-65
2023/07/20 05:51:42;;;;;;;2.60;2.40;;;;;;;;;;5091561;27;20045;-65
2023/07/20 05:54:09;;;;;;;2.60;2.20;;;;;;;;;;5088610;27;20389;-63
2023/07/20 05:56:35;;;;;;;2.75;2.28;;;;;;;;;;5094403;27;20087;-62
2023/07/20 05:59:02;;;;;;;3.35;3.05;;;;;;;;;;5086511;27;20048;-65
2023/07/20 06:01:28;;;;;;;2.97;2.65;;;;;;;;;;5083821;28;20052;-65
2023/07/20 06:03:55;;;;;;;4.53;3.00;;;;;;;;;;5098939;27;20485;-62
2023/07/20 06:06:21;;;;;;;2.30;2.10;;;;;;;;;;5100594;28;20055;-63
2023/07/20 06:08:48;;;;;;;7.53;3.85;;;;;;;;;;5102284;28;20056;-63
2023/07/20 06:11:15;;;;;;;4.13;2.22;;;;;;;;;;5083905;28;20059;-66
2023/07/20 06:13:43;;;;;;;3.10;2.47;;;;;;;;;;5102156;28;20052;-65
2023/07/20 06:16:09;;;;;;;2.80;1.92;;;;;;;;;;5100661;27;20068;-65
2023/07/20 06:18:36;;;;;;;2.22;2.03;;;;;;;;;;5102522;27;20052;-66
2023/07/20 06:21:02;;;;;;;2.22;2.03;;;;;;;;;;5102602;27;20134;-63
2023/07/20 06:23:29;;;;;;;2.72;2.50;;;;;;;;;;5099547;27;20059;-63
2023/07/20 06:25:57;;;;;;;3.63;2.42;;;;;;;;;;5098416;28;20126;-64
2023/07/20 06:28:23;;;;;;;3.33;2.58;;;;;;;;;;5102429;27;20124;-64
2023/07/20 06:30:51;;;;;;;3.75;2.70;;;;;;;;;;5083931;28;20044;-66
2023/07/20 06:33:18;;;;;;;3.25;1.70;;;;;;;;;;5101966;28;20052;-65
2023/07/20 06:35:44;;;;;;;3.50;1.50;;;;;;;;;;5090976;28;20048;-61
2023/07/20 06:38:10;;;;;;;2.03;1.52;;;;;;;;;;5101792;28;20534;-62
2023/07/20 06:40:40;;;;;;;1.80;1.23;;;;;;;;;;5107091;27;20120;-66
2023/07/20 06:43:06;;;;;;;1.98;1.20;;;;;;;;;;5105306;27;20052;-63
2023/07/20 06:45:36;;;;;;;1.00;0.93;;;;;;;;;;5100625;27;20127;-61
2023/07/20 06:48:03;;;;;;;1.15;1.00;;;;;;;;;;5101060;28;20516;-65
2023/07/20 06:50:29;;;;;;;1.58;1.20;;;;;;;;;;5102103;27;20592;-65
2023/07/20 06:52:58;;;;;;;1.02;0.80;;;;;;;;;;5097561;27;20062;-66
2023/07/20 06:55:25;;;;;;;2.33;1.50;;;;;;;;;;5101285;27;20437;-66
2023/07/20 06:57:52;;;;;;;1.75;1.40;;;;;;;;;;5095944;27;20351;-61
2023/07/20 07:00:24;;;;;;;1.30;1.20;;;;;;;;;;5100115;27;20052;-64
2023/07/20 07:02:51;;;;;;;2.05;1.67;;;;;;;;;;5100693;27;20056;-65
2023/07/20 07:05:18;;;;;;;1.75;1.17;;;;;;;;;;5085501;27;20485;-67
2023/07/20 07:07:46;;;;;;;4.05;1.20;;;;;;;;;;5089343;27;20052;-64
2023/07/20 07:10:13;;;;;;;1.20;1.10;;;;;;;;;;5090987;27;20189;-63
2023/07/20 07:12:40;;;;;;;1.33;1.10;;;;;;;;;;5101619;27;20052;-62
2023/07/20 07:15:07;;;;;;;1.27;1.10;;;;;;;;;;5097221;27;20539;-65
2023/07/20 07:17:35;;;;;;;1.65;1.00;;;;;;;;;;5100236;27;20545;-66
2023/07/20 07:20:04;;;;;;;1.95;1.02;;;;;;;;;;5099204;27;20052;-65
2023/07/20 07:22:33;;;;;;;1.58;1.20;;;;;;;;;;5098287;27;20094;-61
2023/07/20 07:25:00;;;;;;;3.10;1.13;;;;;;;;;;5091401;28;20048;-65
2023/07/20 07:27:26;;;;;;;2.28;1.63;;;;;;;;;;5094910;27;20110;-66
2023/07/20 07:29:53;;;;;;;2.45;1.10;;;;;;;;;;5109182;27;20047;-62
2023/07/20 07:32:19;;;;;;;1.77;1.00;;;;;;;;;;5100618;27;20048;-62
2023/07/20 07:34:48;;;;;;;0.93;0.90;;;;;;;;;;5105547;27;20057;-66
2023/07/20 07:37:15;;;;;;;0.70;0.68;;;;;;;;;;5104294;27;20123;-63
2023/07/20 07:39:41;;;;;;;0.73;0.73;;;;;;;;;;5104689;27;20059;-65
2023/07/20 07:42:08;;;;;;;4.43;1.02;;;;;;;;;;5100203;27;20136;-67
2023/07/20 07:44:34;;;;;;;3.00;0.85;;;;;;;;;;5085272;28;20056;-63
2023/07/20 07:47:00;;;;;;;0.55;0.55;;;;;;;;;;5103969;28;20052;-63
2023/07/20 07:49:27;;;;;;;1.13;0.80;;;;;;;;;;5104999;28;20583;-66
2023/07/20 07:51:54;;;;;;;0.65;0.65;;;;;;;;;;5105345;27;20056;-66
2023/07/20 07:54:20;;;;;;;1.38;0.88;;;;;;;;;;5103424;28;20598;-65
2023/07/20 07:56:46;;;;;;;2.67;0.80;;;;;;;;;;5105271;27;20898;-66
2023/07/20 07:59:13;;;;;;;0.98;0.77;;;;;;;;;;5104904;27;20577;-64
2023/07/20 08:01:40;;;;;;;0.70;0.70;;;;;;;;;;5096393;27;20134;-62
2023/07/20 08:04:06;;;;;;;0.88;0.88;;;;;;;;;;5092077;27;20110;-63
2023/07/20 08:06:33;;;;;;;0.73;0.73;;;;;;;;;;5106472;27;20056;-61
2023/07/20 08:09:00;;;;;;;3.35;1.10;;;;;;;;;;5098942;27;20056;-63
2023/07/20 08:11:26;;;;;;;0.88;0.88;;;;;;;;;;5104284;27;20105;-63
2023/07/20 08:13:53;;;;;;;1.02;0.75;;;;;;;;;;5102123;27;20606;-62
2023/07/20 08:16:19;;;;;;;3.00;0.82;;;;;;;;;;5098241;27;20514;-66
2023/07/20 08:18:46;;;;;;;0.52;0.50;;;;;;;;;;5100474;27;20051;-66
2023/07/20 08:21:13;;;;;;;0.75;0.60;;;;;;;;;;5103866;28;20051;-64
2023/07/20 08:23:39;;;;;;;1.33;1.02;;;;;;;;;;5097874;27;20052;-63
2023/07/20 08:26:06;;;;;;;1.48;0.50;;;;;;;;;;5092872;27;20083;-66
2023/07/20 08:28:32;;;;;;;4.25;0.80;;;;;;;;;;5103584;28;20078;-63
2023/07/20 08:30:59;;;;;;;0.60;0.60;;;;;;;;;;5104538;27;20304;-63
2023/07/20 08:33:29;;;;;;;0.60;0.60;;;;;;;;;;5103245;27;20622;-66
2023/07/20 08:35:56;;;;;;;0.68;0.55;;;;;;;;;;5103310;27;20056;-59
2023/07/20 08:38:23;;;;;;;1.30;0.60;;;;;;;;;;5096562;27;20055;-64
2023/07/20 08:40:51;;;;;;;0.70;0.50;;;;;;;;;;5097541;27;20446;-65
2023/07/20 08:43:18;;;;;;;0.50;0.50;;;;;;;;;;5103857;27;20048;-65
2023/07/20 08:45:46;;;;;;;1.45;0.70;;;;;;;;;;5099775;27;20381;-67
2023/07/20 08:48:13;;;;;;;0.40;0.40;;;;;;;;;;5093288;28;20075;-66
2023/07/20 08:50:40;;;;;;;0.80;0.52;;;;;;;;;;5096618;27;20537;-64
2023/07/20 08:53:08;;;;;;;0.70;0.65;;;;;;;;;;5100685;28;20063;-66
2023/07/20 08:55:35;;;;;;;0.75;0.70;;;;;;;;;;5104113;27;20142;-66
2023/07/20 08:58:02;;;;;;;1.65;0.90;;;;;;;;;;5102427;28;20598;-66
2023/07/20 09:00:30;;;;;;;1.17;0.60;;;;;;;;;;5096441;27;20051;-66
2023/07/20 09:02:57;;;;;;;1.38;0.73;;;;;;;;;;5106369;27;20055;-67
2023/07/20 09:05:26;;;;;;;0.40;0.40;;;;;;;;;;5103795;28;20224;-67
2023/07/20 09:07:54;;;;;;;0.98;0.52;;;;;;;;;;5103110;28;20055;-67
2023/07/20 09:10:21;;;;;;;0.57;0.50;;;;;;;;;;5100971;27;20063;-66
2023/07/20 09:12:47;;;;;;;0.90;0.70;;;;;;;;;;5099449;27;20131;-63
2023/07/20 09:15:14;;;;;;;1.13;0.70;;;;;;;;;;5103145;27;20518;-67
2023/07/20 09:17:45;;;;;;;0.57;0.40;;;;;;;;;;5107199;27;20059;-65
2023/07/20 09:20:11;;;;;;;0.60;0.40;;;;;;;;;;5103745;27;20056;-66
2023/07/20 09:22:42;;;;;;;0.98;0.20;;;;;;;;;;5102920;28;20102;-63
2023/07/20 09:25:13;;;;;;;0.40;0.40;;;;;;;;;;5104100;27;20105;-64
2023/07/20 09:27:47;;;;;;;0.50;0.50;;;;;;;;;;5102498;28;20047;-67
2023/07/20 09:30:15;;;;;;;1.00;0.60;;;;;;;;;;5102394;27;20052;-66
2023/07/20 09:32:47;;;;;;;0.60;0.40;;;;;;;;;;5103415;28;20094;-66
2023/07/20 09:35:18;;;;;;;1.48;0.40;;;;;;;;;;5103090;27;20056;-66
2023/07/20 09:37:59;;;;;;;0.60;0.60;;;;;;;;;;5099408;28;20435;-67
2023/07/20 09:40:29;;;;;;;0.65;0.55;;;;;;;;;;5103198;28;20117;-63
2023/07/20 09:43:03;;;;;;;1.35;0.75;;;;;;;;;;5103940;27;20618;-64
2023/07/20 09:45:33;;;;;;;1.13;0.60;;;;;;;;;;5084743;28;20396;-64
2023/07/20 09:48:03;;;;;;;1.35;0.50;;;;;;;;;;5103198;28;20101;-64
2023/07/20 09:50:33;;;;;;;0.55;0.50;;;;;;;;;;5100702;27;20056;-64
2023/07/20 09:53:01;;;;;;;0.52;0.50;;;;;;;;;;5103154;28;20063;-64
2023/07/20 09:55:31;;;;;;;0.70;0.57;;;;;;;;;;5101314;28;20062;-65
2023/07/20 09:57:58;;;;;;;1.70;0.50;;;;;;;;;;5105685;27;20082;-65
2023/07/20 10:00:24;;;;;;;1.13;0.68;;;;;;;;;;5103144;27;20548;-64
2023/07/20 10:02:55;;;;;;;1.00;0.47;;;;;;;;;;5109913;27;20149;-62
2023/07/20 10:05:22;;;;;;;0.30;0.30;;;;;;;;;;5109005;27;20071;-64
2023/07/20 10:07:49;;;;;;;0.47;0.47;;;;;;;;;;5102608;27;20108;-65
2023/07/20 10:10:17;;;;;;;0.85;0.50;;;;;;;;;;5113452;27;20062;-64
2023/07/20 10:12:44;;;;;;;0.45;0.45;;;;;;;;;;5091258;27;20059;-45
2023/07/20 10:15:13;;;;;;;1.60;0.52;;;;;;;;;;5094608;27;20133;-72
2023/07/20 10:17:49;;;;;;;3.08;0.40;;;;;;;;;;5093331;27;20090;-63
2023/07/20 10:20:20;;;;;;;1.58;0.30;;;;;;;;;;5109734;27;20486;-69
2023/07/20 10:22:47;;;;;;;0.47;0.47;;;;;;;;;;5095115;27;20060;-69
2023/07/20 10:25:14;;;;;;;1.23;0.57;;;;;;;;;;5098047;28;20045;-71
2023/07/20 10:27:41;;;;;;;1.60;0.43;;;;;;;;;;5090814;27;20074;-65
2023/07/20 10:30:07;;;;;;;0.75;0.75;;;;;;;;;;5102330;28;20922;-65
2023/07/20 10:32:34;;;;;;;1.30;0.32;;;;;;;;;;5103825;27;20062;-65
2023/07/20 10:35:08;;;;;;;0.40;0.40;;;;;;;;;;5102726;27;20059;-66
2023/07/20 10:37:51;;;;;;;0.57;0.50;;;;;;;;;;5102733;28;20291;-64
2023/07/20 10:40:37;;;;;;;1.75;0.40;;;;;;;;;;5091696;27;20052;-65
2023/07/20 10:43:06;;;;;;;0.43;0.40;;;;;;;;;;5102227;27;20052;-62
2023/07/20 10:45:40;;;;;;;0.60;0.60;;;;;;;;;;5102989;28;20047;-64
2023/07/20 10:48:16;;;;;;;3.37;0.90;;;;;;;;;;5102004;28;20137;-67
2023/07/20 10:50:43;;;;;;;3.10;0.50;;;;;;;;;;5090990;27;20069;-65
2023/07/20 10:53:10;;;;;;;3.50;0.55;;;;;;;;;;5097163;27;20110;-62
2023/07/20 10:55:36;;;;;;;0.70;0.45;;;;;;;;;;5098108;27;20546;-65
2023/07/20 10:58:07;;;;;;;0.40;0.40;;;;;;;;;;5099869;27;20080;-65
2023/07/20 11:00:33;;;;;;;0.85;0.50;;;;;;;;;;5092786;27;20465;-61
2023/07/20 11:03:00;;;;;;;0.63;0.50;;;;;;;;;;5095116;27;20048;-60
2023/07/20 11:05:36;;;;;;;0.65;0.40;;;;;;;;;;5098106;27;20052;-64
2023/07/20 11:08:04;;;;;;;0.40;0.40;;;;;;;;;;5096801;27;20121;-64
2023/07/20 11:10:31;;;;;;;0.60;0.60;;;;;;;;;;5100940;27;20063;-63
2023/07/20 11:13:16;;;;;;;0.30;0.30;;;;;;;;;;5099650;27;20143;-63
2023/07/20 11:15:56;;;;;;;0.55;0.25;;;;;;;;;;5104659;27;20055;-62
2023/07/20 11:18:25;;;;;;;0.47;0.40;;;;;;;;;;5104406;27;20056;-66
2023/07/20 11:20:52;;;;;;;1.40;0.35;;;;;;;;;;5112562;27;20056;-65
2023/07/20 11:23:21;;;;;;;0.32;0.30;;;;;;;;;;5098143;28;20080;-65
2023/07/20 11:25:49;;;;;;;1.50;0.65;;;;;;;;;;5104862;27;20109;-64
2023/07/20 11:28:15;;;;;;;0.35;0.32;;;;;;;;;;5104699;27;20056;-65
2023/07/20 11:30:42;;;;;;;1.10;0.63;;;;;;;;;;5105429;27;20056;-65
2023/07/20 11:33:09;;;;;;;2.38;0.40;;;;;;;;;;5106624;27;20067;-64
2023/07/20 11:35:41;;;;;;;0.45;0.40;;;;;;;;;;5105603;27;20060;-64
2023/07/20 11:38:08;;;;;;;0.38;0.30;;;;;;;;;;5111068;27;20548;-64
2023/07/20 11:40:34;;;;;;;0.28;0.28;;;;;;;;;;5106538;27;20368;-65
2023/07/20 11:43:01;;;;;;;0.47;0.20;;;;;;;;;;5110035;27;20174;-64
2023/07/20 11:45:32;;;;;;;0.40;0.40;;;;;;;;;;5106182;27;20138;-65
2023/07/20 11:48:00;;;;;;;0.55;0.25;;;;;;;;;;5103479;27;20110;-65
2023/07/20 11:50:26;;;;;;;0.20;0.20;;;;;;;;;;5099703;27;20058;-66
2023/07/20 11:52:53;;;;;;;1.40;0.30;;;;;;;;;;5093657;28;20043;-62
2023/07/20 11:55:19;;;;;;;7.90;0.45;;;;;;;;;;5105716;27;20074;-61
2023/07/20 11:58:06;;;;;;;1.02;0.45;;;;;;;;;;5102557;27;20109;-65
2023/07/20 12:00:33;;;;;;;0.30;0.30;;;;;;;;;;5103464;27;20052;-61
2023/07/20 12:03:00;;;;;;;0.68;0.40;;;;;;;;;;5104307;28;20171;-63
2023/07/20 12:05:27;;;;;;;0.40;0.40;;;;;;;;;;5104660;27;21888;-68
2023/07/20 12:07:54;;;;;;;0.60;0.55;;;;;;;;;;5104881;27;20078;-66
2023/07/20 12:10:26;;;;;;;2.83;0.68;;;;;;;;;;5101336;27;20055;-66
2023/07/20 12:12:53;;;;;;;0.35;0.35;;;;;;;;;;5104106;27;20059;-67
2023/07/20 12:15:23;;;;;;;0.63;0.63;;;;;;;;;;5103379;27;20075;-67
2023/07/20 12:17:51;;;;;;;2.85;0.60;;;;;;;;;;5091428;28;20555;-64
2023/07/20 12:20:31;;;;;;;0.82;0.50;;;;;;;;;;5105583;27;20059;-63
2023/07/20 12:23:02;;;;;;;1.25;0.95;;;;;;;;;;5099893;27;20056;-62
2023/07/20 12:25:39;;;;;;;1.50;0.75;;;;;;;;;;5110060;27;20509;-66
2023/07/20 12:28:10;;;;;;;0.30;0.30;;;;;;;;;;5093918;28;20052;-66
2023/07/20 12:30:37;;;;;;;0.50;0.50;;;;;;;;;;5104012;27;20052;-67
2023/07/20 12:33:04;;;;;;;0.50;0.50;;;;;;;;;;5104578;27;20063;-64
2023/07/20 12:35:31;;;;;;;0.95;0.50;;;;;;;;;;5103281;27;20595;-67
2023/07/20 12:37:58;;;;;;;3.10;0.70;;;;;;;;;;5102692;27;20060;-64
2023/07/20 12:40:24;;;;;;;1.20;0.40;;;;;;;;;;5102812;27;20052;-66
2023/07/20 12:42:51;;;;;;;0.43;0.43;;;;;;;;;;5094467;27;20078;-63
2023/07/20 12:45:17;;;;;;;1.52;0.50;;;;;;;;;;5103528;28;20052;-68
2023/07/20 12:47:44;;;;;;;0.45;0.45;;;;;;;;;;5097689;27;20054;-63
2023/07/20 12:50:11;;;;;;;1.10;0.50;;;;;;;;;;5102950;28;20047;-66
2023/07/20 12:52:38;;;;;;;0.50;0.50;;;;;;;;;;5091770;27;20134;-63
2023/07/20 12:55:05;;;;;;;0.65;0.47;;;;;;;;;;5103209;28;20048;-66
2023/07/20 12:57:33;;;;;;;0.52;0.47;;;;;;;;;;5105487;27;20515;-66
2023/07/20 12:59:59;;;;;;;0.50;0.50;;;;;;;;;;5108222;27;20149;-67
2023/07/20 13:02:25;;;;;;;0.65;0.60;;;;;;;;;;5105706;27;20474;-64
2023/07/20 13:04:52;;;;;;;0.68;0.50;;;;;;;;;;5098676;27;20627;-66
2023/07/20 13:07:28;;;;;;;1.08;0.65;;;;;;;;;;5107699;27;20068;-67
2023/07/20 13:10:00;;;;;;;0.82;0.50;;;;;;;;;;5102953;27;20060;-66
2023/07/20 13:12:29;;;;;;;1.73;0.57;;;;;;;;;;5111738;27;20080;-67
2023/07/20 13:14:56;;;;;;;0.60;0.60;;;;;;;;;;5102305;27;20502;-65
2023/07/20 13:17:23;;;;;;;2.95;0.70;;;;;;;;;;5103618;27;20139;-65
2023/07/20 13:19:50;;;;;;;1.73;0.70;;;;;;;;;;5102955;27;20052;-66
2023/07/20 13:22:16;;;;;;;0.70;0.70;;;;;;;;;;5104899;27;20052;-65
2023/07/20 13:24:45;;;;;;;1.27;0.50;;;;;;;;;;5091652;27;20140;-62
2023/07/20 13:27:11;;;;;;;0.50;0.50;;;;;;;;;;5103458;27;20509;-64
2023/07/20 13:29:37;;;;;;;1.95;0.50;;;;;;;;;;5098628;27;20056;-64
2023/07/20 13:32:06;;;;;;;0.50;0.50;;;;;;;;;;5097234;27;20441;-65
2023/07/20 13:34:33;;;;;;;1.48;0.55;;;;;;;;;;5099414;27;20056;-63
2023/07/20 13:36:59;;;;;;;0.60;0.60;;;;;;;;;;5104333;27;20078;-62
2023/07/20 13:39:29;;;;;;;1.17;0.70;;;;;;;;;;5099272;27;20088;-66
2023/07/20 13:41:55;;;;;;;0.50;0.50;;;;;;;;;;5095372;27;20106;-62
2023/07/20 13:44:22;;;;;;;0.70;0.70;;;;;;;;;;5094929;27;20059;-60
2023/07/20 13:46:49;;;;;;;0.77;0.60;;;;;;;;;;5101329;28;20051;-62
2023/07/20 13:49:15;;;;;;;1.27;0.50;;;;;;;;;;5102378;27;20055;-67
2023/07/20 13:51:49;;;;;;;1.95;0.70;;;;;;;;;;5100974;27;20044;-66
2023/07/20 13:54:35;;;;;;;0.93;0.60;;;;;;;;;;5102467;27;20059;-64
2023/07/20 13:57:02;;;;;;;1.65;1.08;;;;;;;;;;5094623;27;20063;-62
2023/07/20 13:59:29;;;;;;;0.63;0.60;;;;;;;;;;5099693;27;20051;-61
2023/07/20 14:01:55;;;;;;;3.40;0.70;;;;;;;;;;5099480;27;20360;-65
2023/07/20 14:04:24;;;;;;;0.65;0.63;;;;;;;;;;5097014;27;20063;-68
2023/07/20 14:06:51;;;;;;;0.95;0.73;;;;;;;;;;5101619;27;20101;-66
2023/07/20 14:09:18;;;;;;;1.75;0.60;;;;;;;;;;5098395;27;20194;-67
2023/07/20 14:11:45;;;;;;;0.90;0.70;;;;;;;;;;5091123;27;20048;-68
2023/07/20 14:14:15;;;;;;;1.25;0.52;;;;;;;;;;5101123;27;20062;-62
2023/07/20 14:16:42;;;;;;;0.93;0.60;;;;;;;;;;5113435;27;20052;-65
2023/07/20 14:19:08;;;;;;;4.60;0.73;;;;;;;;;;5099614;27;20059;-66
2023/07/20 14:21:36;;;;;;;1.48;0.73;;;;;;;;;;5103677;27;20056;-66
2023/07/20 14:24:04;;;;;;;2.47;0.75;;;;;;;;;;5105304;27;20055;-64
2023/07/20 14:26:31;;;;;;;0.75;0.60;;;;;;;;;;5102586;27;20506;-67
2023/07/20 14:28:59;;;;;;;0.73;0.68;;;;;;;;;;5091418;27;20580;-64
2023/07/20 14:31:26;;;;;;;0.65;0.65;;;;;;;;;;5094161;27;20399;-67
2023/07/20 14:33:53;;;;;;;0.55;0.50;;;;;;;;;;5100794;27;20054;-62
2023/07/20 14:36:20;;;;;;;0.50;0.40;;;;;;;;;;5078948;27;20056;-64
2023/07/20 14:38:47;;;;;;;1.83;0.70;;;;;;;;;;5076174;27;20537;-67
2023/07/20 14:41:13;;;;;;;0.70;0.65;;;;;;;;;;5093117;27;20236;-68
2023/07/20 14:43:40;;;;;;;1.85;0.98;;;;;;;;;;5098260;27;20060;-66
2023/07/20 14:46:06;;;;;;;1.55;0.85;;;;;;;;;;5090544;27;20048;-67
2023/07/20 14:48:33;;;;;;;0.60;0.60;;;;;;;;;;5103393;27;20141;-57